sensor_id;sensor_type;location;lat;lon;timestamp;P1;durP1;ratioP1;P2;durP2;ratioP2
18804;SDS011;9530;48.930;9.526;2022-09-03T00:00:01;1.93;;;1.30;;
18804;SDS011;9530;48.930;9.526;2022-09-03T00:02:35;2.30;;;1.20;;
18804;SDS011;9530;48.930;9.526;2022-09-03T00:05:07;1.73;;;1.20;;
18804;SDS011;9530;48.930;9.526;2022-09-03T00:07:41;3.23;;;1.40;;
18804;SDS011;9530;48.930;9.526;2022-09-03T00:10:14;1.50;;;1.20;;
18804;SDS011;9530;48.930;9.526;2022-09-03T00:12:45;2.93;;;1.10;;
18804;SDS011;9530;48.930;9.526;2022-09-03T00:15:13;2.57;;;1.10;;
18804;SDS011;9530;48.930;9.526;2022-09-03T00:17:43;1.40;;;1.20;;
18804;SDS011;9530;48.930;9.526;2022-09-03T00:20:15;1.80;;;1.20;;
18804;SDS011;9530;48.930;9.526;2022-09-03T00:22:47;1.63;;;0.97;;
18804;SDS011;9530;48.930;9.526;2022-09-03T00:25:17;1.53;;;1.10;;
18804;SDS011;9530;48.930;9.526;2022-09-03T00:27:49;1.60;;;1.27;;
18804;SDS011;9530;48.930;9.526;2022-09-03T00:30:19;3.40;;;1.30;;
18804;SDS011;9530;48.930;9.526;2022-09-03T00:32:49;1.73;;;1.07;;
18804;SDS011;9530;48.930;9.526;2022-09-03T00:35:22;3.67;;;1.10;;
18804;SDS011;9530;48.930;9.526;2022-09-03T00:37:53;2.53;;;1.10;;
18804;SDS011;9530;48.930;9.526;2022-09-03T00:40:35;4.17;;;1.10;;
18804;SDS011;9530;48.930;9.526;2022-09-03T00:43:14;1.50;;;1.20;;
18804;SDS011;9530;48.930;9.526;2022-09-03T00:45:52;1.97;;;1.20;;
18804;SDS011;9530;48.930;9.526;2022-09-03T00:48:27;1.40;;;1.13;;
18804;SDS011;9530;48.930;9.526;2022-09-03T00:51:01;6.40;;;1.40;;
18804;SDS011;9530;48.930;9.526;2022-09-03T00:53:38;2.53;;;1.37;;
18804;SDS011;9530;48.930;9.526;2022-09-03T00:56:17;1.70;;;1.20;;
18804;SDS011;9530;48.930;9.526;2022-09-03T00:58:54;2.37;;;1.30;;
18804;SDS011;9530;48.930;9.526;2022-09-03T01:01:34;2.37;;;1.40;;
18804;SDS011;9530;48.930;9.526;2022-09-03T01:04:14;1.70;;;1.30;;
18804;SDS011;9530;48.930;9.526;2022-09-03T01:06:54;1.93;;;1.40;;
18804;SDS011;9530;48.930;9.526;2022-09-03T01:09:34;1.53;;;1.30;;
18804;SDS011;9530;48.930;9.526;2022-09-03T01:12:09;2.43;;;1.20;;
18804;SDS011;9530;48.930;9.526;2022-09-03T01:14:43;3.37;;;1.30;;
18804;SDS011;9530;48.930;9.526;2022-09-03T01:17:21;2.33;;;1.23;;
18804;SDS011;9530;48.930;9.526;2022-09-03T01:20:02;1.60;;;1.30;;
18804;SDS011;9530;48.930;9.526;2022-09-03T01:22:56;2.10;;;1.23;;
18804;SDS011;9530;48.930;9.526;2022-09-03T01:25:50;1.47;;;1.10;;
18804;SDS011;9530;48.930;9.526;2022-09-03T01:28:28;2.93;;;1.20;;
18804;SDS011;9530;48.930;9.526;2022-09-03T01:31:10;4.13;;;1.27;;
18804;SDS011;9530;48.930;9.526;2022-09-03T01:33:46;2.87;;;1.60;;
18804;SDS011;9530;48.930;9.526;2022-09-03T01:36:22;1.67;;;1.23;;
18804;SDS011;9530;48.930;9.526;2022-09-03T01:38:58;1.77;;;1.20;;
18804;SDS011;9530;48.930;9.526;2022-09-03T01:41:29;2.97;;;1.23;;
18804;SDS011;9530;48.930;9.526;2022-09-03T01:44:28;3.60;;;1.30;;
18804;SDS011;9530;48.930;9.526;2022-09-03T01:47:08;2.40;;;1.47;;
18804;SDS011;9530;48.930;9.526;2022-09-03T01:49:44;1.97;;;1.20;;
18804;SDS011;9530;48.930;9.526;2022-09-03T01:52:23;3.53;;;1.37;;
18804;SDS011;9530;48.930;9.526;2022-09-03T01:55:05;2.07;;;1.10;;
18804;SDS011;9530;48.930;9.526;2022-09-03T01:57:48;2.23;;;1.30;;
18804;SDS011;9530;48.930;9.526;2022-09-03T02:00:21;1.37;;;1.17;;
18804;SDS011;9530;48.930;9.526;2022-09-03T02:02:49;1.97;;;1.30;;
18804;SDS011;9530;48.930;9.526;2022-09-03T02:05:17;2.30;;;1.30;;
18804;SDS011;9530;48.930;9.526;2022-09-03T02:07:48;3.33;;;1.40;;
18804;SDS011;9530;48.930;9.526;2022-09-03T02:10:17;1.87;;;1.40;;
18804;SDS011;9530;48.930;9.526;2022-09-03T02:12:47;2.33;;;1.43;;
18804;SDS011;9530;48.930;9.526;2022-09-03T02:15:18;1.67;;;1.30;;
18804;SDS011;9530;48.930;9.526;2022-09-03T02:17:48;1.57;;;1.27;;
18804;SDS011;9530;48.930;9.526;2022-09-03T02:20:21;1.40;;;1.10;;
18804;SDS011;9530;48.930;9.526;2022-09-03T02:22:50;1.40;;;1.10;;
18804;SDS011;9530;48.930;9.526;2022-09-03T02:25:19;3.13;;;1.30;;
18804;SDS011;9530;48.930;9.526;2022-09-03T02:27:49;1.93;;;1.33;;
18804;SDS011;9530;48.930;9.526;2022-09-03T02:30:16;1.83;;;1.40;;
18804;SDS011;9530;48.930;9.526;2022-09-03T02:32:43;2.07;;;1.23;;
18804;SDS011;9530;48.930;9.526;2022-09-03T02:35:11;2.30;;;1.37;;
18804;SDS011;9530;48.930;9.526;2022-09-03T02:37:38;2.50;;;1.20;;
18804;SDS011;9530;48.930;9.526;2022-09-03T02:40:06;1.53;;;1.30;;
18804;SDS011;9530;48.930;9.526;2022-09-03T02:42:34;4.23;;;1.20;;
18804;SDS011;9530;48.930;9.526;2022-09-03T02:45:06;1.50;;;1.17;;
18804;SDS011;9530;48.930;9.526;2022-09-03T02:47:41;1.77;;;1.17;;
18804;SDS011;9530;48.930;9.526;2022-09-03T02:50:09;1.80;;;1.40;;
18804;SDS011;9530;48.930;9.526;2022-09-03T02:52:37;2.67;;;1.10;;
18804;SDS011;9530;48.930;9.526;2022-09-03T02:55:04;2.00;;;1.40;;
18804;SDS011;9530;48.930;9.526;2022-09-03T02:57:31;1.93;;;1.10;;
18804;SDS011;9530;48.930;9.526;2022-09-03T02:59:58;2.23;;;1.20;;
18804;SDS011;9530;48.930;9.526;2022-09-03T03:02:24;2.60;;;1.40;;
18804;SDS011;9530;48.930;9.526;2022-09-03T03:04:51;1.73;;;1.27;;
18804;SDS011;9530;48.930;9.526;2022-09-03T03:07:20;2.97;;;1.47;;
18804;SDS011;9530;48.930;9.526;2022-09-03T03:09:47;2.10;;;1.47;;
18804;SDS011;9530;48.930;9.526;2022-09-03T03:12:14;3.17;;;1.33;;
18804;SDS011;9530;48.930;9.526;2022-09-03T03:14:41;2.17;;;1.20;;
18804;SDS011;9530;48.930;9.526;2022-09-03T03:17:08;2.07;;;1.30;;
18804;SDS011;9530;48.930;9.526;2022-09-03T03:19:34;1.53;;;1.33;;
18804;SDS011;9530;48.930;9.526;2022-09-03T03:22:01;1.77;;;1.23;;
18804;SDS011;9530;48.930;9.526;2022-09-03T03:24:29;3.80;;;1.40;;
18804;SDS011;9530;48.930;9.526;2022-09-03T03:26:56;1.70;;;1.30;;
18804;SDS011;9530;48.930;9.526;2022-09-03T03:29:23;2.23;;;1.30;;
18804;SDS011;9530;48.930;9.526;2022-09-03T03:31:50;2.37;;;1.30;;
18804;SDS011;9530;48.930;9.526;2022-09-03T03:34:18;2.07;;;1.37;;
18804;SDS011;9530;48.930;9.526;2022-09-03T03:36:44;2.73;;;1.10;;
18804;SDS011;9530;48.930;9.526;2022-09-03T03:39:11;1.60;;;1.20;;
18804;SDS011;9530;48.930;9.526;2022-09-03T03:41:39;1.87;;;1.47;;
18804;SDS011;9530;48.930;9.526;2022-09-03T03:44:06;2.33;;;1.27;;
18804;SDS011;9530;48.930;9.526;2022-09-03T03:46:34;1.47;;;1.20;;
18804;SDS011;9530;48.930;9.526;2022-09-03T03:49:02;1.57;;;1.40;;
18804;SDS011;9530;48.930;9.526;2022-09-03T03:51:30;2.37;;;1.30;;
18804;SDS011;9530;48.930;9.526;2022-09-03T03:53:57;4.13;;;1.30;;
18804;SDS011;9530;48.930;9.526;2022-09-03T03:56:24;2.03;;;1.37;;
18804;SDS011;9530;48.930;9.526;2022-09-03T03:58:53;1.50;;;1.27;;
18804;SDS011;9530;48.930;9.526;2022-09-03T04:01:21;1.73;;;1.23;;
18804;SDS011;9530;48.930;9.526;2022-09-03T04:03:49;2.70;;;1.40;;
18804;SDS011;9530;48.930;9.526;2022-09-03T04:06:17;1.70;;;1.40;;
18804;SDS011;9530;48.930;9.526;2022-09-03T04:08:45;4.03;;;1.50;;
18804;SDS011;9530;48.930;9.526;2022-09-03T04:11:14;3.50;;;1.40;;
18804;SDS011;9530;48.930;9.526;2022-09-03T04:13:43;1.90;;;1.30;;
18804;SDS011;9530;48.930;9.526;2022-09-03T04:16:13;2.67;;;1.40;;
18804;SDS011;9530;48.930;9.526;2022-09-03T04:18:40;1.70;;;1.50;;
18804;SDS011;9530;48.930;9.526;2022-09-03T04:21:08;1.77;;;1.40;;
18804;SDS011;9530;48.930;9.526;2022-09-03T04:23:37;2.07;;;1.40;;
18804;SDS011;9530;48.930;9.526;2022-09-03T04:26:05;2.13;;;1.40;;
18804;SDS011;9530;48.930;9.526;2022-09-03T04:28:32;2.37;;;1.40;;
18804;SDS011;9530;48.930;9.526;2022-09-03T04:30:59;3.67;;;1.40;;
18804;SDS011;9530;48.930;9.526;2022-09-03T04:33:28;2.20;;;1.63;;
18804;SDS011;9530;48.930;9.526;2022-09-03T04:36:00;4.03;;;1.60;;
18804;SDS011;9530;48.930;9.526;2022-09-03T04:38:30;1.83;;;1.30;;
18804;SDS011;9530;48.930;9.526;2022-09-03T04:40:57;2.10;;;1.53;;
18804;SDS011;9530;48.930;9.526;2022-09-03T04:43:24;1.70;;;1.37;;
18804;SDS011;9530;48.930;9.526;2022-09-03T04:45:54;1.70;;;1.37;;
18804;SDS011;9530;48.930;9.526;2022-09-03T04:48:22;2.40;;;1.67;;
18804;SDS011;9530;48.930;9.526;2022-09-03T04:50:50;1.50;;;1.30;;
18804;SDS011;9530;48.930;9.526;2022-09-03T04:53:17;3.83;;;1.40;;
18804;SDS011;9530;48.930;9.526;2022-09-03T04:55:44;2.10;;;1.50;;
18804;SDS011;9530;48.930;9.526;2022-09-03T04:58:10;1.80;;;1.40;;
18804;SDS011;9530;48.930;9.526;2022-09-03T05:00:37;2.10;;;1.53;;
18804;SDS011;9530;48.930;9.526;2022-09-03T05:03:04;2.10;;;1.50;;
18804;SDS011;9530;48.930;9.526;2022-09-03T05:05:31;1.83;;;1.43;;
18804;SDS011;9530;48.930;9.526;2022-09-03T05:08:00;4.03;;;1.40;;
18804;SDS011;9530;48.930;9.526;2022-09-03T05:10:28;2.17;;;1.53;;
18804;SDS011;9530;48.930;9.526;2022-09-03T05:12:59;3.73;;;1.50;;
18804;SDS011;9530;48.930;9.526;2022-09-03T05:15:26;1.77;;;1.50;;
18804;SDS011;9530;48.930;9.526;2022-09-03T05:17:57;2.60;;;1.50;;
18804;SDS011;9530;48.930;9.526;2022-09-03T05:20:26;2.60;;;1.80;;
18804;SDS011;9530;48.930;9.526;2022-09-03T05:22:54;2.77;;;1.60;;
18804;SDS011;9530;48.930;9.526;2022-09-03T05:25:23;2.13;;;1.43;;
18804;SDS011;9530;48.930;9.526;2022-09-03T05:27:49;3.30;;;1.50;;
18804;SDS011;9530;48.930;9.526;2022-09-03T05:30:18;1.67;;;1.47;;
18804;SDS011;9530;48.930;9.526;2022-09-03T05:32:46;2.60;;;1.60;;
18804;SDS011;9530;48.930;9.526;2022-09-03T05:35:13;3.33;;;1.63;;
18804;SDS011;9530;48.930;9.526;2022-09-03T05:37:40;4.53;;;1.70;;
18804;SDS011;9530;48.930;9.526;2022-09-03T05:40:07;2.60;;;1.50;;
18804;SDS011;9530;48.930;9.526;2022-09-03T05:42:36;2.67;;;1.67;;
18804;SDS011;9530;48.930;9.526;2022-09-03T05:45:05;3.13;;;1.70;;
18804;SDS011;9530;48.930;9.526;2022-09-03T05:47:35;1.93;;;1.73;;
18804;SDS011;9530;48.930;9.526;2022-09-03T05:50:03;4.90;;;1.70;;
18804;SDS011;9530;48.930;9.526;2022-09-03T05:52:31;2.57;;;1.63;;
18804;SDS011;9530;48.930;9.526;2022-09-03T05:54:58;3.57;;;1.77;;
18804;SDS011;9530;48.930;9.526;2022-09-03T05:57:25;2.77;;;1.60;;
18804;SDS011;9530;48.930;9.526;2022-09-03T05:59:53;3.53;;;1.90;;
18804;SDS011;9530;48.930;9.526;2022-09-03T06:02:19;2.47;;;1.80;;
18804;SDS011;9530;48.930;9.526;2022-09-03T06:04:46;3.57;;;1.70;;
18804;SDS011;9530;48.930;9.526;2022-09-03T06:07:13;2.53;;;1.80;;
18804;SDS011;9530;48.930;9.526;2022-09-03T06:09:40;6.03;;;1.97;;
18804;SDS011;9530;48.930;9.526;2022-09-03T06:12:07;1.83;;;1.57;;
18804;SDS011;9530;48.930;9.526;2022-09-03T06:14:34;2.80;;;1.60;;
18804;SDS011;9530;48.930;9.526;2022-09-03T06:17:02;2.83;;;1.70;;
18804;SDS011;9530;48.930;9.526;2022-09-03T06:19:29;5.70;;;1.60;;
18804;SDS011;9530;48.930;9.526;2022-09-03T06:21:55;2.17;;;1.70;;
18804;SDS011;9530;48.930;9.526;2022-09-03T06:24:22;3.80;;;1.60;;
18804;SDS011;9530;48.930;9.526;2022-09-03T06:26:51;3.80;;;1.60;;
18804;SDS011;9530;48.930;9.526;2022-09-03T06:29:18;3.57;;;1.80;;
18804;SDS011;9530;48.930;9.526;2022-09-03T06:31:45;2.27;;;1.70;;
18804;SDS011;9530;48.930;9.526;2022-09-03T06:34:13;2.27;;;1.80;;
18804;SDS011;9530;48.930;9.526;2022-09-03T06:36:42;2.00;;;1.80;;
18804;SDS011;9530;48.930;9.526;2022-09-03T06:39:09;4.80;;;1.90;;
18804;SDS011;9530;48.930;9.526;2022-09-03T06:41:36;3.00;;;2.20;;
18804;SDS011;9530;48.930;9.526;2022-09-03T06:44:04;3.27;;;1.90;;
18804;SDS011;9530;48.930;9.526;2022-09-03T06:46:35;2.50;;;1.83;;
18804;SDS011;9530;48.930;9.526;2022-09-03T06:49:03;3.67;;;1.80;;
18804;SDS011;9530;48.930;9.526;2022-09-03T06:51:32;2.40;;;1.70;;
18804;SDS011;9530;48.930;9.526;2022-09-03T06:54:00;1.67;;;1.57;;
18804;SDS011;9530;48.930;9.526;2022-09-03T06:56:27;2.70;;;1.60;;
18804;SDS011;9530;48.930;9.526;2022-09-03T06:58:55;2.03;;;1.60;;
18804;SDS011;9530;48.930;9.526;2022-09-03T07:01:24;3.47;;;1.97;;
18804;SDS011;9530;48.930;9.526;2022-09-03T07:03:52;7.57;;;2.07;;
18804;SDS011;9530;48.930;9.526;2022-09-03T07:06:21;2.30;;;1.90;;
18804;SDS011;9530;48.930;9.526;2022-09-03T07:08:52;5.30;;;1.83;;
18804;SDS011;9530;48.930;9.526;2022-09-03T07:11:23;3.57;;;1.90;;
18804;SDS011;9530;48.930;9.526;2022-09-03T07:13:51;2.87;;;1.80;;
18804;SDS011;9530;48.930;9.526;2022-09-03T07:16:20;1.97;;;1.60;;
18804;SDS011;9530;48.930;9.526;2022-09-03T07:18:48;3.20;;;1.80;;
18804;SDS011;9530;48.930;9.526;2022-09-03T07:21:16;3.43;;;1.47;;
18804;SDS011;9530;48.930;9.526;2022-09-03T07:23:44;2.97;;;1.80;;
18804;SDS011;9530;48.930;9.526;2022-09-03T07:26:13;2.00;;;1.80;;
18804;SDS011;9530;48.930;9.526;2022-09-03T07:28:43;2.17;;;1.70;;
18804;SDS011;9530;48.930;9.526;2022-09-03T07:31:11;2.27;;;1.70;;
18804;SDS011;9530;48.930;9.526;2022-09-03T07:33:39;2.10;;;1.90;;
18804;SDS011;9530;48.930;9.526;2022-09-03T07:36:07;2.30;;;1.80;;
18804;SDS011;9530;48.930;9.526;2022-09-03T07:38:35;2.53;;;1.77;;
18804;SDS011;9530;48.930;9.526;2022-09-03T07:41:02;2.03;;;1.70;;
18804;SDS011;9530;48.930;9.526;2022-09-03T07:43:34;2.63;;;1.90;;
18804;SDS011;9530;48.930;9.526;2022-09-03T07:46:02;4.70;;;1.80;;
18804;SDS011;9530;48.930;9.526;2022-09-03T07:48:28;5.17;;;1.70;;
18804;SDS011;9530;48.930;9.526;2022-09-03T07:50:56;2.37;;;1.60;;
18804;SDS011;9530;48.930;9.526;2022-09-03T07:53:25;4.40;;;1.77;;
18804;SDS011;9530;48.930;9.526;2022-09-03T07:55:52;4.50;;;1.93;;
18804;SDS011;9530;48.930;9.526;2022-09-03T07:58:20;2.10;;;1.90;;
18804;SDS011;9530;48.930;9.526;2022-09-03T08:00:49;2.23;;;1.80;;
18804;SDS011;9530;48.930;9.526;2022-09-03T08:03:16;2.10;;;1.63;;
18804;SDS011;9530;48.930;9.526;2022-09-03T08:05:43;2.77;;;1.70;;
18804;SDS011;9530;48.930;9.526;2022-09-03T08:08:10;2.60;;;1.80;;
18804;SDS011;9530;48.930;9.526;2022-09-03T08:10:38;3.43;;;2.20;;
18804;SDS011;9530;48.930;9.526;2022-09-03T08:13:04;2.60;;;1.90;;
18804;SDS011;9530;48.930;9.526;2022-09-03T08:15:31;4.80;;;1.70;;
18804;SDS011;9530;48.930;9.526;2022-09-03T08:18:00;3.60;;;2.00;;
18804;SDS011;9530;48.930;9.526;2022-09-03T08:20:26;2.30;;;1.73;;
18804;SDS011;9530;48.930;9.526;2022-09-03T08:22:59;2.57;;;1.90;;
18804;SDS011;9530;48.930;9.526;2022-09-03T08:25:26;5.57;;;2.07;;
18804;SDS011;9530;48.930;9.526;2022-09-03T08:27:53;2.13;;;1.87;;
18804;SDS011;9530;48.930;9.526;2022-09-03T08:30:22;3.47;;;1.80;;
18804;SDS011;9530;48.930;9.526;2022-09-03T08:32:50;2.90;;;1.97;;
18804;SDS011;9530;48.930;9.526;2022-09-03T08:35:18;2.43;;;1.83;;
18804;SDS011;9530;48.930;9.526;2022-09-03T08:37:45;3.30;;;1.93;;
18804;SDS011;9530;48.930;9.526;2022-09-03T08:40:13;2.77;;;1.87;;
18804;SDS011;9530;48.930;9.526;2022-09-03T08:42:42;2.67;;;2.10;;
18804;SDS011;9530;48.930;9.526;2022-09-03T08:45:14;3.50;;;1.80;;
18804;SDS011;9530;48.930;9.526;2022-09-03T08:47:44;2.53;;;2.03;;
18804;SDS011;9530;48.930;9.526;2022-09-03T08:50:16;3.60;;;2.10;;
18804;SDS011;9530;48.930;9.526;2022-09-03T08:52:50;2.70;;;1.80;;
18804;SDS011;9530;48.930;9.526;2022-09-03T08:55:23;2.40;;;1.80;;
18804;SDS011;9530;48.930;9.526;2022-09-03T08:57:53;3.50;;;2.27;;
18804;SDS011;9530;48.930;9.526;2022-09-03T09:00:26;2.13;;;1.93;;
18804;SDS011;9530;48.930;9.526;2022-09-03T09:03:06;2.83;;;1.90;;
18804;SDS011;9530;48.930;9.526;2022-09-03T09:05:52;3.20;;;2.00;;
18804;SDS011;9530;48.930;9.526;2022-09-03T09:08:26;2.57;;;1.70;;
18804;SDS011;9530;48.930;9.526;2022-09-03T09:11:00;4.37;;;1.90;;
18804;SDS011;9530;48.930;9.526;2022-09-03T09:13:32;5.27;;;2.40;;
18804;SDS011;9530;48.930;9.526;2022-09-03T09:16:08;2.73;;;2.10;;
18804;SDS011;9530;48.930;9.526;2022-09-03T09:18:44;3.70;;;2.03;;
18804;SDS011;9530;48.930;9.526;2022-09-03T09:21:25;3.57;;;2.03;;
18804;SDS011;9530;48.930;9.526;2022-09-03T09:23:54;2.63;;;1.80;;
18804;SDS011;9530;48.930;9.526;2022-09-03T09:26:26;2.83;;;2.10;;
18804;SDS011;9530;48.930;9.526;2022-09-03T09:28:54;2.77;;;1.93;;
18804;SDS011;9530;48.930;9.526;2022-09-03T09:31:26;1.90;;;1.70;;
18804;SDS011;9530;48.930;9.526;2022-09-03T09:33:54;4.30;;;2.00;;
18804;SDS011;9530;48.930;9.526;2022-09-03T09:36:27;3.93;;;2.40;;
18804;SDS011;9530;48.930;9.526;2022-09-03T09:38:53;1.80;;;1.70;;
18804;SDS011;9530;48.930;9.526;2022-09-03T09:41:20;3.33;;;2.17;;
18804;SDS011;9530;48.930;9.526;2022-09-03T09:43:58;3.27;;;1.83;;
18804;SDS011;9530;48.930;9.526;2022-09-03T09:46:26;2.40;;;1.80;;
18804;SDS011;9530;48.930;9.526;2022-09-03T09:48:59;2.40;;;1.90;;
18804;SDS011;9530;48.930;9.526;2022-09-03T09:51:28;2.90;;;2.20;;
18804;SDS011;9530;48.930;9.526;2022-09-03T09:53:59;4.57;;;2.17;;
18804;SDS011;9530;48.930;9.526;2022-09-03T09:56:27;2.50;;;2.13;;
18804;SDS011;9530;48.930;9.526;2022-09-03T09:59:01;2.30;;;1.90;;
18804;SDS011;9530;48.930;9.526;2022-09-03T10:01:28;4.03;;;2.17;;
18804;SDS011;9530;48.930;9.526;2022-09-03T10:03:56;2.20;;;2.00;;
18804;SDS011;9530;48.930;9.526;2022-09-03T10:06:24;2.37;;;1.93;;
18804;SDS011;9530;48.930;9.526;2022-09-03T10:09:12;4.63;;;1.90;;
18804;SDS011;9530;48.930;9.526;2022-09-03T10:11:42;2.83;;;2.00;;
18804;SDS011;9530;48.930;9.526;2022-09-03T10:14:15;3.13;;;2.10;;
18804;SDS011;9530;48.930;9.526;2022-09-03T10:16:47;4.07;;;2.20;;
18804;SDS011;9530;48.930;9.526;2022-09-03T10:19:22;3.73;;;2.20;;
18804;SDS011;9530;48.930;9.526;2022-09-03T10:21:57;4.50;;;2.10;;
18804;SDS011;9530;48.930;9.526;2022-09-03T10:24:32;2.93;;;2.47;;
18804;SDS011;9530;48.930;9.526;2022-09-03T10:27:07;5.47;;;2.37;;
18804;SDS011;9530;48.930;9.526;2022-09-03T10:29:36;2.90;;;2.13;;
18804;SDS011;9530;48.930;9.526;2022-09-03T10:32:09;3.67;;;2.10;;
18804;SDS011;9530;48.930;9.526;2022-09-03T10:34:49;5.53;;;2.07;;
18804;SDS011;9530;48.930;9.526;2022-09-03T10:37:24;2.10;;;1.80;;
18804;SDS011;9530;48.930;9.526;2022-09-03T10:40:08;3.40;;;2.20;;
18804;SDS011;9530;48.930;9.526;2022-09-03T10:42:42;3.30;;;1.77;;
18804;SDS011;9530;48.930;9.526;2022-09-03T10:45:17;2.47;;;2.10;;
18804;SDS011;9530;48.930;9.526;2022-09-03T10:48:00;2.10;;;1.90;;
18804;SDS011;9530;48.930;9.526;2022-09-03T10:50:47;3.40;;;2.07;;
18804;SDS011;9530;48.930;9.526;2022-09-03T10:53:20;2.93;;;2.10;;
18804;SDS011;9530;48.930;9.526;2022-09-03T10:55:59;2.20;;;2.00;;
18804;SDS011;9530;48.930;9.526;2022-09-03T10:58:35;2.37;;;2.17;;
18804;SDS011;9530;48.930;9.526;2022-09-03T11:01:19;2.83;;;1.87;;
18804;SDS011;9530;48.930;9.526;2022-09-03T11:03:55;4.30;;;2.10;;
18804;SDS011;9530;48.930;9.526;2022-09-03T11:06:38;3.47;;;2.30;;
18804;SDS011;9530;48.930;9.526;2022-09-03T11:09:10;2.43;;;2.10;;
18804;SDS011;9530;48.930;9.526;2022-09-03T11:11:44;2.77;;;2.00;;
18804;SDS011;9530;48.930;9.526;2022-09-03T11:14:17;2.27;;;2.07;;
18804;SDS011;9530;48.930;9.526;2022-09-03T11:16:54;4.73;;;2.30;;
18804;SDS011;9530;48.930;9.526;2022-09-03T11:19:29;2.57;;;1.93;;
18804;SDS011;9530;48.930;9.526;2022-09-03T11:21:59;3.00;;;1.90;;
18804;SDS011;9530;48.930;9.526;2022-09-03T11:24:27;4.87;;;2.00;;
18804;SDS011;9530;48.930;9.526;2022-09-03T11:27:00;2.47;;;2.07;;
18804;SDS011;9530;48.930;9.526;2022-09-03T11:29:32;4.93;;;2.40;;
18804;SDS011;9530;48.930;9.526;2022-09-03T11:32:07;2.90;;;1.97;;
18804;SDS011;9530;48.930;9.526;2022-09-03T11:34:44;2.70;;;2.00;;
18804;SDS011;9530;48.930;9.526;2022-09-03T11:37:16;3.13;;;1.93;;
18804;SDS011;9530;48.930;9.526;2022-09-03T11:39:54;2.43;;;2.23;;
18804;SDS011;9530;48.930;9.526;2022-09-03T11:42:26;3.00;;;2.07;;
18804;SDS011;9530;48.930;9.526;2022-09-03T11:45:13;4.40;;;1.77;;
18804;SDS011;9530;48.930;9.526;2022-09-03T11:47:48;2.30;;;1.90;;
18804;SDS011;9530;48.930;9.526;2022-09-03T11:50:16;2.97;;;2.20;;
18804;SDS011;9530;48.930;9.526;2022-09-03T11:52:45;4.10;;;2.40;;
18804;SDS011;9530;48.930;9.526;2022-09-03T11:55:23;2.60;;;2.10;;
18804;SDS011;9530;48.930;9.526;2022-09-03T11:57:56;4.30;;;2.00;;
18804;SDS011;9530;48.930;9.526;2022-09-03T12:00:23;2.47;;;1.83;;
18804;SDS011;9530;48.930;9.526;2022-09-03T12:02:51;3.93;;;2.20;;
18804;SDS011;9530;48.930;9.526;2022-09-03T12:05:24;3.80;;;2.30;;
18804;SDS011;9530;48.930;9.526;2022-09-03T12:08:01;3.27;;;2.03;;
18804;SDS011;9530;48.930;9.526;2022-09-03T12:10:45;2.63;;;2.00;;
18804;SDS011;9530;48.930;9.526;2022-09-03T12:13:25;3.53;;;2.10;;
18804;SDS011;9530;48.930;9.526;2022-09-03T12:16:05;2.63;;;2.27;;
18804;SDS011;9530;48.930;9.526;2022-09-03T12:18:52;2.40;;;2.03;;
18804;SDS011;9530;48.930;9.526;2022-09-03T12:21:21;4.93;;;2.40;;
18804;SDS011;9530;48.930;9.526;2022-09-03T12:23:49;2.47;;;2.10;;
18804;SDS011;9530;48.930;9.526;2022-09-03T12:26:17;4.30;;;1.90;;
18804;SDS011;9530;48.930;9.526;2022-09-03T12:28:47;2.20;;;2.00;;
18804;SDS011;9530;48.930;9.526;2022-09-03T12:31:16;2.13;;;1.90;;
18804;SDS011;9530;48.930;9.526;2022-09-03T12:33:47;3.43;;;2.40;;
18804;SDS011;9530;48.930;9.526;2022-09-03T12:36:15;3.50;;;2.13;;
18804;SDS011;9530;48.930;9.526;2022-09-03T12:38:42;2.30;;;1.97;;
18804;SDS011;9530;48.930;9.526;2022-09-03T12:41:24;2.37;;;1.80;;
18804;SDS011;9530;48.930;9.526;2022-09-03T12:43:55;2.50;;;1.87;;
18804;SDS011;9530;48.930;9.526;2022-09-03T12:46:24;4.10;;;3.23;;
18804;SDS011;9530;48.930;9.526;2022-09-03T12:48:52;3.60;;;2.30;;
18804;SDS011;9530;48.930;9.526;2022-09-03T12:51:20;2.77;;;2.20;;
18804;SDS011;9530;48.930;9.526;2022-09-03T12:53:47;2.50;;;2.00;;
18804;SDS011;9530;48.930;9.526;2022-09-03T12:56:16;4.80;;;2.37;;
18804;SDS011;9530;48.930;9.526;2022-09-03T12:58:45;4.67;;;1.93;;
18804;SDS011;9530;48.930;9.526;2022-09-03T13:01:18;2.20;;;2.00;;
18804;SDS011;9530;48.930;9.526;2022-09-03T13:03:48;5.50;;;1.90;;
18804;SDS011;9530;48.930;9.526;2022-09-03T13:06:19;3.80;;;2.20;;
18804;SDS011;9530;48.930;9.526;2022-09-03T13:08:48;3.53;;;2.23;;
18804;SDS011;9530;48.930;9.526;2022-09-03T13:11:18;4.33;;;2.53;;
18804;SDS011;9530;48.930;9.526;2022-09-03T13:13:51;3.53;;;1.90;;
18804;SDS011;9530;48.930;9.526;2022-09-03T13:19:36;5.60;;;2.27;;
18804;SDS011;9530;48.930;9.526;2022-09-03T13:22:14;2.67;;;1.87;;
18804;SDS011;9530;48.930;9.526;2022-09-03T13:27:42;4.80;;;1.80;;
18804;SDS011;9530;48.930;9.526;2022-09-03T13:30:18;3.57;;;1.70;;
18804;SDS011;9530;48.930;9.526;2022-09-03T13:32:51;2.00;;;1.80;;
18804;SDS011;9530;48.930;9.526;2022-09-03T13:35:28;1.60;;;1.40;;
18804;SDS011;9530;48.930;9.526;2022-09-03T13:38:02;2.67;;;1.70;;
18804;SDS011;9530;48.930;9.526;2022-09-03T13:40:35;1.60;;;1.50;;
18804;SDS011;9530;48.930;9.526;2022-09-03T13:43:09;1.73;;;1.30;;
18804;SDS011;9530;48.930;9.526;2022-09-03T13:45:49;1.37;;;1.17;;
18804;SDS011;9530;48.930;9.526;2022-09-03T13:48:24;2.10;;;1.40;;
18804;SDS011;9530;48.930;9.526;2022-09-03T13:51:16;1.33;;;1.00;;
18804;SDS011;9530;48.930;9.526;2022-09-03T13:53:49;1.77;;;1.20;;
18804;SDS011;9530;48.930;9.526;2022-09-03T13:56:28;1.10;;;0.90;;
18804;SDS011;9530;48.930;9.526;2022-09-03T13:59:03;1.33;;;1.20;;
18804;SDS011;9530;48.930;9.526;2022-09-03T14:01:40;1.50;;;0.90;;
18804;SDS011;9530;48.930;9.526;2022-09-03T14:04:20;1.20;;;1.10;;
18804;SDS011;9530;48.930;9.526;2022-09-03T14:06:53;1.50;;;1.03;;
18804;SDS011;9530;48.930;9.526;2022-09-03T14:09:26;1.27;;;1.10;;
18804;SDS011;9530;48.930;9.526;2022-09-03T14:12:01;1.20;;;1.00;;
18804;SDS011;9530;48.930;9.526;2022-09-03T14:14:36;1.97;;;1.23;;
18804;SDS011;9530;48.930;9.526;2022-09-03T14:17:11;2.40;;;1.07;;
18804;SDS011;9530;48.930;9.526;2022-09-03T14:19:44;1.13;;;1.00;;
18804;SDS011;9530;48.930;9.526;2022-09-03T14:22:14;2.70;;;1.00;;
18804;SDS011;9530;48.930;9.526;2022-09-03T14:24:48;1.10;;;1.00;;
18804;SDS011;9530;48.930;9.526;2022-09-03T14:27:23;1.00;;;0.90;;
18804;SDS011;9530;48.930;9.526;2022-09-03T14:29:52;3.53;;;1.10;;
18804;SDS011;9530;48.930;9.526;2022-09-03T14:32:28;2.93;;;1.10;;
18804;SDS011;9530;48.930;9.526;2022-09-03T14:35:16;1.30;;;1.10;;
18804;SDS011;9530;48.930;9.526;2022-09-03T14:38:08;2.27;;;1.00;;
18804;SDS011;9530;48.930;9.526;2022-09-03T14:41:02;1.13;;;1.03;;
18804;SDS011;9530;48.930;9.526;2022-09-03T14:43:39;1.40;;;1.10;;
18804;SDS011;9530;48.930;9.526;2022-09-03T14:46:27;2.03;;;1.00;;
18804;SDS011;9530;48.930;9.526;2022-09-03T14:49:08;1.73;;;1.10;;
18804;SDS011;9530;48.930;9.526;2022-09-03T14:51:51;1.27;;;1.10;;
18804;SDS011;9530;48.930;9.526;2022-09-03T14:54:35;1.63;;;1.00;;
18804;SDS011;9530;48.930;9.526;2022-09-03T14:57:22;2.10;;;1.10;;
18804;SDS011;9530;48.930;9.526;2022-09-03T15:00:06;2.33;;;1.10;;
18804;SDS011;9530;48.930;9.526;2022-09-03T15:05:40;1.47;;;1.27;;
18804;SDS011;9530;48.930;9.526;2022-09-03T15:08:35;1.10;;;1.00;;
18804;SDS011;9530;48.930;9.526;2022-09-03T15:11:14;1.57;;;1.10;;
18804;SDS011;9530;48.930;9.526;2022-09-03T15:13:44;1.57;;;1.13;;
18804;SDS011;9530;48.930;9.526;2022-09-03T15:16:17;1.27;;;1.10;;
18804;SDS011;9530;48.930;9.526;2022-09-03T15:18:57;2.70;;;1.00;;
18804;SDS011;9530;48.930;9.526;2022-09-03T15:21:40;2.90;;;1.20;;
18804;SDS011;9530;48.930;9.526;2022-09-03T15:24:28;2.43;;;1.00;;
18804;SDS011;9530;48.930;9.526;2022-09-03T15:27:08;2.10;;;1.30;;
18804;SDS011;9530;48.930;9.526;2022-09-03T15:29:48;1.87;;;0.90;;
18804;SDS011;9530;48.930;9.526;2022-09-03T15:32:21;1.80;;;1.20;;
18804;SDS011;9530;48.930;9.526;2022-09-03T15:35:03;1.53;;;1.10;;
18804;SDS011;9530;48.930;9.526;2022-09-03T15:37:33;1.10;;;0.90;;